sensor_id;sensor_type;location;lat;lon;timestamp;P1;durP1;ratioP1;P2;durP2;ratioP2
45011;SDS011;63444;48.148;11.542;2024-03-02T00:00:42;8.13;;;7.33;;
45011;SDS011;63444;48.148;11.542;2024-03-02T00:03:08;7.10;;;6.17;;
45011;SDS011;63444;48.148;11.542;2024-03-02T00:05:36;7.20;;;6.47;;
45011;SDS011;63444;48.148;11.542;2024-03-02T00:08:02;7.17;;;6.47;;
45011;SDS011;63444;48.148;11.542;2024-03-02T00:10:36;7.53;;;6.10;;
45011;SDS011;63444;48.148;11.542;2024-03-02T00:13:06;7.77;;;6.07;;
45011;SDS011;63444;48.148;11.542;2024-03-02T00:18:20;7.00;;;6.30;;
45011;SDS011;63444;48.148;11.542;2024-03-02T00:20:52;7.00;;;6.30;;
45011;SDS011;63444;48.148;11.542;2024-03-02T00:23:22;8.13;;;6.63;;
45011;SDS011;63444;48.148;11.542;2024-03-02T00:25:52;7.57;;;6.87;;
45011;SDS011;63444;48.148;11.542;2024-03-02T00:30:55;8.13;;;6.63;;
45011;SDS011;63444;48.148;11.542;2024-03-02T00:33:37;8.27;;;7.47;;
45011;SDS011;63444;48.148;11.542;2024-03-02T00:36:04;7.93;;;7.13;;
45011;SDS011;63444;48.148;11.542;2024-03-02T00:38:30;8.40;;;7.60;;
45011;SDS011;63444;48.148;11.542;2024-03-02T00:40:58;8.87;;;7.90;;
45011;SDS011;63444;48.148;11.542;2024-03-02T00:46:08;8.77;;;7.40;;
45011;SDS011;63444;48.148;11.542;2024-03-02T00:48:36;7.80;;;6.97;;
45011;SDS011;63444;48.148;11.542;2024-03-02T00:51:02;8.07;;;7.27;;
45011;SDS011;63444;48.148;11.542;2024-03-02T00:53:29;7.87;;;7.07;;
45011;SDS011;63444;48.148;11.542;2024-03-02T00:55:56;6.83;;;6.20;;
45011;SDS011;63444;48.148;11.542;2024-03-02T00:58:22;7.00;;;6.40;;
45011;SDS011;63444;48.148;11.542;2024-03-02T01:00:47;7.63;;;6.87;;
45011;SDS011;63444;48.148;11.542;2024-03-02T01:03:13;7.20;;;6.50;;
45011;SDS011;63444;48.148;11.542;2024-03-02T01:05:42;7.27;;;6.60;;
45011;SDS011;63444;48.148;11.542;2024-03-02T01:08:08;7.43;;;6.73;;
45011;SDS011;63444;48.148;11.542;2024-03-02T01:10:35;7.30;;;6.60;;
45011;SDS011;63444;48.148;11.542;2024-03-02T01:13:00;7.33;;;6.63;;
45011;SDS011;63444;48.148;11.542;2024-03-02T01:15:26;7.80;;;7.00;;
45011;SDS011;63444;48.148;11.542;2024-03-02T01:17:52;8.83;;;6.90;;
45011;SDS011;63444;48.148;11.542;2024-03-02T01:20:17;7.33;;;6.63;;
45011;SDS011;63444;48.148;11.542;2024-03-02T01:22:43;7.90;;;7.10;;
45011;SDS011;63444;48.148;11.542;2024-03-02T01:25:09;7.73;;;6.93;;
45011;SDS011;63444;48.148;11.542;2024-03-02T01:27:35;7.53;;;6.83;;
45011;SDS011;63444;48.148;11.542;2024-03-02T01:30:00;7.67;;;6.97;;
45011;SDS011;63444;48.148;11.542;2024-03-02T01:32:26;8.40;;;7.63;;
45011;SDS011;63444;48.148;11.542;2024-03-02T01:34:52;9.17;;;8.27;;
45011;SDS011;63444;48.148;11.542;2024-03-02T01:37:17;9.30;;;8.40;;
45011;SDS011;63444;48.148;11.542;2024-03-02T01:39:43;8.60;;;7.67;;
45011;SDS011;63444;48.148;11.542;2024-03-02T01:42:08;8.73;;;7.90;;
45011;SDS011;63444;48.148;11.542;2024-03-02T01:44:35;8.03;;;7.13;;
45011;SDS011;63444;48.148;11.542;2024-03-02T01:47:01;8.30;;;7.50;;
45011;SDS011;63444;48.148;11.542;2024-03-02T01:49:27;8.47;;;7.67;;
45011;SDS011;63444;48.148;11.542;2024-03-02T01:51:52;8.27;;;7.47;;
45011;SDS011;63444;48.148;11.542;2024-03-02T01:54:18;7.70;;;7.00;;
45011;SDS011;63444;48.148;11.542;2024-03-02T01:56:44;7.73;;;6.97;;
45011;SDS011;63444;48.148;11.542;2024-03-02T01:59:10;7.80;;;7.10;;
45011;SDS011;63444;48.148;11.542;2024-03-02T02:01:36;7.50;;;6.80;;
45011;SDS011;63444;48.148;11.542;2024-03-02T02:04:01;7.53;;;6.83;;
45011;SDS011;63444;48.148;11.542;2024-03-02T02:06:27;7.37;;;6.67;;
45011;SDS011;63444;48.148;11.542;2024-03-02T02:08:53;7.83;;;7.13;;
45011;SDS011;63444;48.148;11.542;2024-03-02T02:11:18;7.50;;;6.80;;
45011;SDS011;63444;48.148;11.542;2024-03-02T02:13:44;7.37;;;6.67;;
45011;SDS011;63444;48.148;11.542;2024-03-02T02:16:10;7.63;;;6.83;;
45011;SDS011;63444;48.148;11.542;2024-03-02T02:18:35;8.03;;;6.63;;
45011;SDS011;63444;48.148;11.542;2024-03-02T02:21:02;7.83;;;6.90;;
45011;SDS011;63444;48.148;11.542;2024-03-02T02:23:28;8.23;;;7.43;;
45011;SDS011;63444;48.148;11.542;2024-03-02T02:25:54;7.63;;;6.87;;
45011;SDS011;63444;48.148;11.542;2024-03-02T02:28:20;7.93;;;7.13;;
45011;SDS011;63444;48.148;11.542;2024-03-02T02:30:45;8.70;;;7.80;;
45011;SDS011;63444;48.148;11.542;2024-03-02T02:33:11;10.17;;;9.17;;
45011;SDS011;63444;48.148;11.542;2024-03-02T02:35:37;9.23;;;8.33;;
45011;SDS011;63444;48.148;11.542;2024-03-02T02:38:02;9.67;;;8.43;;
45011;SDS011;63444;48.148;11.542;2024-03-02T02:40:29;11.73;;;9.70;;
45011;SDS011;63444;48.148;11.542;2024-03-02T02:42:55;9.97;;;8.93;;
45011;SDS011;63444;48.148;11.542;2024-03-02T02:45:22;9.33;;;8.33;;
45011;SDS011;63444;48.148;11.542;2024-03-02T02:47:49;10.17;;;9.10;;
45011;SDS011;63444;48.148;11.542;2024-03-02T02:50:14;10.20;;;9.07;;
45011;SDS011;63444;48.148;11.542;2024-03-02T02:52:40;9.93;;;8.93;;
45011;SDS011;63444;48.148;11.542;2024-03-02T02:55:07;11.37;;;9.20;;
45011;SDS011;63444;48.148;11.542;2024-03-02T02:57:35;10.17;;;9.07;;
45011;SDS011;63444;48.148;11.542;2024-03-02T03:00:03;11.10;;;8.60;;
45011;SDS011;63444;48.148;11.542;2024-03-02T03:02:35;9.20;;;8.30;;
45011;SDS011;63444;48.148;11.542;2024-03-02T03:05:01;8.63;;;7.73;;
45011;SDS011;63444;48.148;11.542;2024-03-02T03:07:27;10.43;;;8.60;;
45011;SDS011;63444;48.148;11.542;2024-03-02T03:09:52;9.17;;;8.13;;
45011;SDS011;63444;48.148;11.542;2024-03-02T03:12:18;9.37;;;8.37;;
45011;SDS011;63444;48.148;11.542;2024-03-02T03:14:44;9.53;;;8.33;;
45011;SDS011;63444;48.148;11.542;2024-03-02T03:17:09;9.77;;;8.77;;
45011;SDS011;63444;48.148;11.542;2024-03-02T03:19:35;8.90;;;7.97;;
45011;SDS011;63444;48.148;11.542;2024-03-02T03:22:03;8.63;;;7.63;;
45011;SDS011;63444;48.148;11.542;2024-03-02T03:24:28;9.40;;;8.00;;
45011;SDS011;63444;48.148;11.542;2024-03-02T03:26:54;8.77;;;7.90;;
45011;SDS011;63444;48.148;11.542;2024-03-02T03:29:20;8.60;;;7.70;;
45011;SDS011;63444;48.148;11.542;2024-03-02T03:31:45;9.07;;;7.90;;
45011;SDS011;63444;48.148;11.542;2024-03-02T03:34:11;8.90;;;8.00;;
45011;SDS011;63444;48.148;11.542;2024-03-02T03:36:40;8.83;;;7.93;;
45011;SDS011;63444;48.148;11.542;2024-03-02T03:39:06;8.47;;;7.57;;
45011;SDS011;63444;48.148;11.542;2024-03-02T03:41:32;9.67;;;8.37;;
45011;SDS011;63444;48.148;11.542;2024-03-02T03:43:57;9.20;;;8.13;;
45011;SDS011;63444;48.148;11.542;2024-03-02T03:46:23;9.03;;;8.10;;
45011;SDS011;63444;48.148;11.542;2024-03-02T03:48:49;8.80;;;7.90;;
45011;SDS011;63444;48.148;11.542;2024-03-02T03:51:14;9.10;;;8.20;;
45011;SDS011;63444;48.148;11.542;2024-03-02T03:53:40;8.77;;;7.90;;
45011;SDS011;63444;48.148;11.542;2024-03-02T03:56:05;8.97;;;8.17;;
45011;SDS011;63444;48.148;11.542;2024-03-02T03:58:31;9.47;;;8.10;;
45011;SDS011;63444;48.148;11.542;2024-03-02T04:00:57;10.10;;;8.13;;
45011;SDS011;63444;48.148;11.542;2024-03-02T04:03:22;10.07;;;8.97;;
45011;SDS011;63444;48.148;11.542;2024-03-02T04:05:48;9.07;;;8.17;;
45011;SDS011;63444;48.148;11.542;2024-03-02T04:08:13;10.03;;;8.83;;
45011;SDS011;63444;48.148;11.542;2024-03-02T04:10:39;9.93;;;8.67;;
45011;SDS011;63444;48.148;11.542;2024-03-02T04:13:07;9.17;;;8.27;;
45011;SDS011;63444;48.148;11.542;2024-03-02T04:15:32;9.87;;;8.87;;
45011;SDS011;63444;48.148;11.542;2024-03-02T04:17:58;9.50;;;8.53;;
45011;SDS011;63444;48.148;11.542;2024-03-02T04:20:23;12.10;;;9.10;;
45011;SDS011;63444;48.148;11.542;2024-03-02T04:22:50;9.93;;;8.93;;
45011;SDS011;63444;48.148;11.542;2024-03-02T04:25:16;9.17;;;8.27;;
45011;SDS011;63444;48.148;11.542;2024-03-02T04:27:41;10.50;;;8.97;;
45011;SDS011;63444;48.148;11.542;2024-03-02T04:30:07;9.03;;;8.13;;
45011;SDS011;63444;48.148;11.542;2024-03-02T04:32:33;8.73;;;7.93;;
45011;SDS011;63444;48.148;11.542;2024-03-02T04:34:58;9.03;;;8.13;;
45011;SDS011;63444;48.148;11.542;2024-03-02T04:37:24;10.83;;;9.73;;
45011;SDS011;63444;48.148;11.542;2024-03-02T04:39:50;10.30;;;8.50;;
45011;SDS011;63444;48.148;11.542;2024-03-02T04:42:15;9.93;;;8.93;;
45011;SDS011;63444;48.148;11.542;2024-03-02T04:44:41;8.87;;;8.07;;
45011;SDS011;63444;48.148;11.542;2024-03-02T04:47:07;8.97;;;8.00;;
45011;SDS011;63444;48.148;11.542;2024-03-02T04:49:33;9.37;;;8.53;;
45011;SDS011;63444;48.148;11.542;2024-03-02T04:51:58;8.50;;;7.70;;
45011;SDS011;63444;48.148;11.542;2024-03-02T04:54:24;8.87;;;7.97;;
45011;SDS011;63444;48.148;11.542;2024-03-02T04:56:49;9.60;;;8.63;;
45011;SDS011;63444;48.148;11.542;2024-03-02T04:59:16;9.90;;;8.87;;
45011;SDS011;63444;48.148;11.542;2024-03-02T05:01:42;10.40;;;9.30;;
45011;SDS011;63444;48.148;11.542;2024-03-02T05:04:08;9.80;;;8.80;;
45011;SDS011;63444;48.148;11.542;2024-03-02T05:06:36;9.80;;;8.80;;
45011;SDS011;63444;48.148;11.542;2024-03-02T05:09:05;9.37;;;8.47;;
45011;SDS011;63444;48.148;11.542;2024-03-02T05:11:31;9.90;;;8.90;;
45011;SDS011;63444;48.148;11.542;2024-03-02T05:14:17;9.07;;;8.17;;
45011;SDS011;63444;48.148;11.542;2024-03-02T05:16:43;9.23;;;8.33;;
45011;SDS011;63444;48.148;11.542;2024-03-02T05:19:08;9.40;;;8.40;;
45011;SDS011;63444;48.148;11.542;2024-03-02T05:21:34;9.33;;;8.43;;
45011;SDS011;63444;48.148;11.542;2024-03-02T05:24:00;10.00;;;9.00;;
45011;SDS011;63444;48.148;11.542;2024-03-02T05:26:25;9.27;;;8.37;;
45011;SDS011;63444;48.148;11.542;2024-03-02T05:28:51;10.30;;;9.30;;
45011;SDS011;63444;48.148;11.542;2024-03-02T05:31:17;11.83;;;9.40;;
45011;SDS011;63444;48.148;11.542;2024-03-02T05:33:42;10.33;;;9.33;;
45011;SDS011;63444;48.148;11.542;2024-03-02T05:36:08;10.23;;;9.13;;
45011;SDS011;63444;48.148;11.542;2024-03-02T05:38:34;10.90;;;9.80;;
45011;SDS011;63444;48.148;11.542;2024-03-02T05:41:00;10.77;;;9.63;;
45011;SDS011;63444;48.148;11.542;2024-03-02T05:43:26;11.50;;;10.23;;
45011;SDS011;63444;48.148;11.542;2024-03-02T05:45:52;11.53;;;10.33;;
45011;SDS011;63444;48.148;11.542;2024-03-02T05:48:17;11.00;;;9.90;;
45011;SDS011;63444;48.148;11.542;2024-03-02T05:50:43;12.00;;;10.80;;
45011;SDS011;63444;48.148;11.542;2024-03-02T05:53:09;11.00;;;9.90;;
45011;SDS011;63444;48.148;11.542;2024-03-02T05:55:34;10.57;;;9.43;;
45011;SDS011;63444;48.148;11.542;2024-03-02T05:58:00;11.03;;;9.90;;
45011;SDS011;63444;48.148;11.542;2024-03-02T06:00:31;12.40;;;10.03;;
45011;SDS011;63444;48.148;11.542;2024-03-02T06:02:57;11.03;;;9.90;;
45011;SDS011;63444;48.148;11.542;2024-03-02T06:05:23;11.13;;;10.03;;
45011;SDS011;63444;48.148;11.542;2024-03-02T06:07:49;11.17;;;10.10;;
45011;SDS011;63444;48.148;11.542;2024-03-02T06:10:15;11.30;;;10.20;;
45011;SDS011;63444;48.148;11.542;2024-03-02T06:12:41;10.90;;;9.80;;
45011;SDS011;63444;48.148;11.542;2024-03-02T06:15:07;11.70;;;10.00;;
45011;SDS011;63444;48.148;11.542;2024-03-02T06:17:34;10.47;;;9.37;;
45011;SDS011;63444;48.148;11.542;2024-03-02T06:20:00;10.80;;;9.70;;
45011;SDS011;63444;48.148;11.542;2024-03-02T06:22:26;10.43;;;9.33;;
45011;SDS011;63444;48.148;11.542;2024-03-02T06:24:52;10.93;;;9.83;;
45011;SDS011;63444;48.148;11.542;2024-03-02T06:27:17;10.83;;;9.50;;
45011;SDS011;63444;48.148;11.542;2024-03-02T06:29:43;10.43;;;9.43;;
45011;SDS011;63444;48.148;11.542;2024-03-02T06:32:08;11.60;;;10.50;;
45011;SDS011;63444;48.148;11.542;2024-03-02T06:34:34;12.77;;;10.60;;
45011;SDS011;63444;48.148;11.542;2024-03-02T06:37:00;11.83;;;10.20;;
45011;SDS011;63444;48.148;11.542;2024-03-02T06:39:25;10.83;;;9.77;;
45011;SDS011;63444;48.148;11.542;2024-03-02T06:41:51;12.30;;;10.43;;
45011;SDS011;63444;48.148;11.542;2024-03-02T06:44:17;11.67;;;10.43;;
45011;SDS011;63444;48.148;11.542;2024-03-02T06:46:42;12.07;;;9.97;;
45011;SDS011;63444;48.148;11.542;2024-03-02T06:49:08;11.33;;;10.23;;
45011;SDS011;63444;48.148;11.542;2024-03-02T06:51:35;10.80;;;9.70;;
45011;SDS011;63444;48.148;11.542;2024-03-02T06:54:01;11.30;;;10.10;;
45011;SDS011;63444;48.148;11.542;2024-03-02T06:56:27;11.73;;;10.53;;
45011;SDS011;63444;48.148;11.542;2024-03-02T06:58:53;12.30;;;11.00;;
45011;SDS011;63444;48.148;11.542;2024-03-02T07:01:18;12.13;;;10.90;;
45011;SDS011;63444;48.148;11.542;2024-03-02T07:03:45;13.17;;;11.43;;
45011;SDS011;63444;48.148;11.542;2024-03-02T07:06:11;13.07;;;11.63;;
45011;SDS011;63444;48.148;11.542;2024-03-02T07:08:36;12.67;;;11.37;;
45011;SDS011;63444;48.148;11.542;2024-03-02T07:11:02;12.97;;;11.67;;
45011;SDS011;63444;48.148;11.542;2024-03-02T07:13:28;12.30;;;11.00;;
45011;SDS011;63444;48.148;11.542;2024-03-02T07:15:53;14.77;;;12.03;;
45011;SDS011;63444;48.148;11.542;2024-03-02T07:18:28;13.83;;;12.10;;
45011;SDS011;63444;48.148;11.542;2024-03-02T07:20:55;13.07;;;11.43;;
45011;SDS011;63444;48.148;11.542;2024-03-02T07:23:23;13.37;;;11.67;;
45011;SDS011;63444;48.148;11.542;2024-03-02T07:25:52;12.83;;;11.50;;
45011;SDS011;63444;48.148;11.542;2024-03-02T07:28:21;15.47;;;12.43;;
45011;SDS011;63444;48.148;11.542;2024-03-02T07:30:47;13.50;;;11.80;;
45011;SDS011;63444;48.148;11.542;2024-03-02T07:33:23;14.40;;;11.97;;
45011;SDS011;63444;48.148;11.542;2024-03-02T07:35:49;14.00;;;12.47;;
45011;SDS011;63444;48.148;11.542;2024-03-02T07:38:15;15.23;;;13.10;;
45011;SDS011;63444;48.148;11.542;2024-03-02T07:40:40;15.13;;;12.70;;
45011;SDS011;63444;48.148;11.542;2024-03-02T07:43:07;15.40;;;13.80;;
45011;SDS011;63444;48.148;11.542;2024-03-02T07:45:33;16.67;;;13.20;;
45011;SDS011;63444;48.148;11.542;2024-03-02T07:48:01;16.47;;;14.30;;
45011;SDS011;63444;48.148;11.542;2024-03-02T07:50:29;16.07;;;13.27;;
45011;SDS011;63444;48.148;11.542;2024-03-02T07:52:55;15.30;;;13.20;;
45011;SDS011;63444;48.148;11.542;2024-03-02T07:55:21;15.33;;;13.17;;
45011;SDS011;63444;48.148;11.542;2024-03-02T07:57:48;16.60;;;14.33;;
45011;SDS011;63444;48.148;11.542;2024-03-02T08:00:15;14.80;;;12.20;;
45011;SDS011;63444;48.148;11.542;2024-03-02T08:02:41;15.43;;;13.47;;
45011;SDS011;63444;48.148;11.542;2024-03-02T08:05:07;13.63;;;12.17;;
45011;SDS011;63444;48.148;11.542;2024-03-02T08:07:34;15.87;;;13.23;;
45011;SDS011;63444;48.148;11.542;2024-03-02T08:10:00;16.93;;;13.70;;
45011;SDS011;63444;48.148;11.542;2024-03-02T08:12:26;15.10;;;12.07;;
45011;SDS011;63444;48.148;11.542;2024-03-02T08:14:51;14.03;;;12.50;;
45011;SDS011;63444;48.148;11.542;2024-03-02T08:17:17;15.70;;;12.47;;
45011;SDS011;63444;48.148;11.542;2024-03-02T08:19:43;14.23;;;12.27;;
45011;SDS011;63444;48.148;11.542;2024-03-02T08:22:09;13.73;;;11.30;;
45011;SDS011;63444;48.148;11.542;2024-03-02T08:24:35;11.60;;;9.93;;
45011;SDS011;63444;48.148;11.542;2024-03-02T08:27:01;11.67;;;10.30;;
45011;SDS011;63444;48.148;11.542;2024-03-02T08:29:27;10.57;;;9.47;;
45011;SDS011;63444;48.148;11.542;2024-03-02T08:31:53;10.33;;;9.30;;
45011;SDS011;63444;48.148;11.542;2024-03-02T08:34:19;10.73;;;8.70;;
45011;SDS011;63444;48.148;11.542;2024-03-02T08:36:45;9.30;;;8.30;;
45011;SDS011;63444;48.148;11.542;2024-03-02T08:39:11;12.23;;;8.03;;
45011;SDS011;63444;48.148;11.542;2024-03-02T08:41:44;9.17;;;8.00;;
45011;SDS011;63444;48.148;11.542;2024-03-02T08:44:10;10.47;;;9.10;;
45011;SDS011;63444;48.148;11.542;2024-03-02T08:46:37;10.73;;;9.53;;
45011;SDS011;63444;48.148;11.542;2024-03-02T08:49:03;9.20;;;7.83;;
45011;SDS011;63444;48.148;11.542;2024-03-02T08:51:29;9.40;;;8.40;;
45011;SDS011;63444;48.148;11.542;2024-03-02T08:53:55;10.97;;;9.53;;
45011;SDS011;63444;48.148;11.542;2024-03-02T08:56:21;9.37;;;8.10;;
45011;SDS011;63444;48.148;11.542;2024-03-02T08:58:48;8.63;;;7.73;;
45011;SDS011;63444;48.148;11.542;2024-03-02T09:01:14;9.20;;;8.23;;
45011;SDS011;63444;48.148;11.542;2024-03-02T09:03:41;10.20;;;8.33;;
45011;SDS011;63444;48.148;11.542;2024-03-02T09:06:09;8.60;;;7.70;;
45011;SDS011;63444;48.148;11.542;2024-03-02T09:08:35;8.93;;;8.03;;
45011;SDS011;63444;48.148;11.542;2024-03-02T09:11:01;8.20;;;7.40;;
45011;SDS011;63444;48.148;11.542;2024-03-02T09:13:28;10.70;;;9.27;;
45011;SDS011;63444;48.148;11.542;2024-03-02T09:15:54;11.30;;;10.00;;
45011;SDS011;63444;48.148;11.542;2024-03-02T09:18:20;12.10;;;10.87;;
45011;SDS011;63444;48.148;11.542;2024-03-02T09:20:45;11.70;;;10.50;;
45011;SDS011;63444;48.148;11.542;2024-03-02T09:23:11;11.77;;;10.57;;
45011;SDS011;63444;48.148;11.542;2024-03-02T09:25:37;11.93;;;10.40;;
45011;SDS011;63444;48.148;11.542;2024-03-02T09:28:02;11.87;;;10.63;;
45011;SDS011;63444;48.148;11.542;2024-03-02T09:30:28;10.77;;;9.53;;
45011;SDS011;63444;48.148;11.542;2024-03-02T09:32:54;11.33;;;10.13;;
45011;SDS011;63444;48.148;11.542;2024-03-02T09:35:19;11.93;;;9.83;;
45011;SDS011;63444;48.148;11.542;2024-03-02T09:37:45;10.97;;;9.77;;
45011;SDS011;63444;48.148;11.542;2024-03-02T09:40:11;12.03;;;10.30;;
45011;SDS011;63444;48.148;11.542;2024-03-02T09:42:38;11.73;;;8.27;;
45011;SDS011;63444;48.148;11.542;2024-03-02T09:45:05;9.83;;;6.90;;
45011;SDS011;63444;48.148;11.542;2024-03-02T09:47:31;8.03;;;7.23;;
45011;SDS011;63444;48.148;11.542;2024-03-02T09:49:57;7.30;;;6.53;;
45011;SDS011;63444;48.148;11.542;2024-03-02T09:52:22;8.87;;;7.97;;
45011;SDS011;63444;48.148;11.542;2024-03-02T09:54:48;11.07;;;8.27;;
45011;SDS011;63444;48.148;11.542;2024-03-02T09:57:14;9.47;;;8.57;;
45011;SDS011;63444;48.148;11.542;2024-03-02T09:59:40;12.07;;;9.07;;
45011;SDS011;63444;48.148;11.542;2024-03-02T10:02:06;9.80;;;8.80;;
45011;SDS011;63444;48.148;11.542;2024-03-02T10:04:32;8.97;;;7.97;;
45011;SDS011;63444;48.148;11.542;2024-03-02T10:09:42;7.67;;;6.93;;
45011;SDS011;63444;48.148;11.542;2024-03-02T10:12:10;8.17;;;7.37;;
45011;SDS011;63444;48.148;11.542;2024-03-02T10:14:39;8.37;;;7.13;;
45011;SDS011;63444;48.148;11.542;2024-03-02T10:17:07;8.37;;;7.37;;
45011;SDS011;63444;48.148;11.542;2024-03-02T10:19:34;8.27;;;7.47;;
45011;SDS011;63444;48.148;11.542;2024-03-02T10:22:02;8.70;;;7.07;;
45011;SDS011;63444;48.148;11.542;2024-03-02T10:24:35;7.30;;;6.60;;
45011;SDS011;63444;48.148;11.542;2024-03-02T10:27:06;8.50;;;6.83;;
45011;SDS011;63444;48.148;11.542;2024-03-02T10:29:35;6.57;;;5.77;;
45011;SDS011;63444;48.148;11.542;2024-03-02T10:32:05;7.77;;;6.53;;
45011;SDS011;63444;48.148;11.542;2024-03-02T10:34:33;7.27;;;6.43;;
45011;SDS011;63444;48.148;11.542;2024-03-02T10:36:59;7.37;;;6.50;;
45011;SDS011;63444;48.148;11.542;2024-03-02T10:39:25;7.70;;;6.90;;
45011;SDS011;63444;48.148;11.542;2024-03-02T10:41:51;9.97;;;7.43;;
45011;SDS011;63444;48.148;11.542;2024-03-02T10:44:18;8.83;;;7.33;;
45011;SDS011;63444;48.148;11.542;2024-03-02T10:46:45;7.87;;;6.47;;
45011;SDS011;63444;48.148;11.542;2024-03-02T10:49:12;7.83;;;6.43;;
45011;SDS011;63444;48.148;11.542;2024-03-02T10:51:38;7.63;;;6.63;;
45011;SDS011;63444;48.148;11.542;2024-03-02T10:54:04;6.97;;;6.13;;
45011;SDS011;63444;48.148;11.542;2024-03-02T10:56:30;8.23;;;6.30;;
45011;SDS011;63444;48.148;11.542;2024-03-02T10:59:03;7.83;;;6.50;;
45011;SDS011;63444;48.148;11.542;2024-03-02T11:01:41;9.63;;;6.90;;
45011;SDS011;63444;48.148;11.542;2024-03-02T11:04:08;7.67;;;6.27;;
45011;SDS011;63444;48.148;11.542;2024-03-02T11:06:37;8.53;;;6.90;;
45011;SDS011;63444;48.148;11.542;2024-03-02T11:09:06;9.07;;;7.73;;
45011;SDS011;63444;48.148;11.542;2024-03-02T11:11:40;9.70;;;8.20;;
45011;SDS011;63444;48.148;11.542;2024-03-02T11:14:10;9.63;;;8.23;;
45011;SDS011;63444;48.148;11.542;2024-03-02T11:16:39;10.43;;;9.03;;
45011;SDS011;63444;48.148;11.542;2024-03-02T11:19:07;11.50;;;9.10;;
45011;SDS011;63444;48.148;11.542;2024-03-02T11:21:37;10.80;;;8.93;;
45011;SDS011;63444;48.148;11.542;2024-03-02T11:27:02;12.80;;;10.30;;
45011;SDS011;63444;48.148;11.542;2024-03-02T11:32:14;13.03;;;10.37;;
45011;SDS011;63444;48.148;11.542;2024-03-02T11:34:46;12.57;;;10.77;;
45011;SDS011;63444;48.148;11.542;2024-03-02T11:37:14;13.17;;;10.33;;
45011;SDS011;63444;48.148;11.542;2024-03-02T11:39:40;14.60;;;11.57;;
45011;SDS011;63444;48.148;11.542;2024-03-02T11:42:07;16.03;;;12.33;;
45011;SDS011;63444;48.148;11.542;2024-03-02T11:44:36;13.33;;;11.17;;
45011;SDS011;63444;48.148;11.542;2024-03-02T11:47:06;14.77;;;11.07;;
45011;SDS011;63444;48.148;11.542;2024-03-02T11:52:15;14.10;;;11.07;;
45011;SDS011;63444;48.148;11.542;2024-03-02T11:54:45;13.73;;;11.20;;
45011;SDS011;63444;48.148;11.542;2024-03-02T11:57:15;12.67;;;10.47;;
45011;SDS011;63444;48.148;11.542;2024-03-02T11:59:42;14.53;;;11.00;;
45011;SDS011;63444;48.148;11.542;2024-03-02T12:02:15;13.73;;;10.67;;
45011;SDS011;63444;48.148;11.542;2024-03-02T12:04:43;13.60;;;10.53;;
45011;SDS011;63444;48.148;11.542;2024-03-02T12:07:10;15.37;;;12.03;;
45011;SDS011;63444;48.148;11.542;2024-03-02T12:09:36;13.83;;;12.10;;
45011;SDS011;63444;48.148;11.542;2024-03-02T12:14:32;15.53;;;12.33;;
45011;SDS011;63444;48.148;11.542;2024-03-02T12:16:58;15.80;;;12.33;;
45011;SDS011;63444;48.148;11.542;2024-03-02T12:19:25;14.83;;;12.63;;
45011;SDS011;63444;48.148;11.542;2024-03-02T12:21:52;17.80;;;14.10;;
45011;SDS011;63444;48.148;11.542;2024-03-02T12:24:18;18.27;;;13.83;;
45011;SDS011;63444;48.148;11.542;2024-03-02T12:26:44;17.07;;;13.73;;
45011;SDS011;63444;48.148;11.542;2024-03-02T12:29:10;16.20;;;13.63;;
45011;SDS011;63444;48.148;11.542;2024-03-02T12:31:36;14.37;;;12.63;;
45011;SDS011;63444;48.148;11.542;2024-03-02T12:34:02;16.83;;;12.57;;
45011;SDS011;63444;48.148;11.542;2024-03-02T12:36:29;13.83;;;11.83;;
45011;SDS011;63444;48.148;11.542;2024-03-02T12:38:54;14.17;;;11.87;;
45011;SDS011;63444;48.148;11.542;2024-03-02T12:41:20;16.10;;;13.07;;
45011;SDS011;63444;48.148;11.542;2024-03-02T12:43:46;14.20;;;12.00;;
45011;SDS011;63444;48.148;11.542;2024-03-02T12:46:12;15.20;;;13.17;;
45011;SDS011;63444;48.148;11.542;2024-03-02T12:48:37;18.83;;;13.83;;
45011;SDS011;63444;48.148;11.542;2024-03-02T12:51:06;20.13;;;14.57;;
45011;SDS011;63444;48.148;11.542;2024-03-02T12:53:31;17.17;;;13.73;;
45011;SDS011;63444;48.148;11.542;2024-03-02T12:55:57;16.83;;;14.53;;
45011;SDS011;63444;48.148;11.542;2024-03-02T12:58:23;16.53;;;13.37;;
45011;SDS011;63444;48.148;11.542;2024-03-02T13:00:49;18.03;;;13.97;;
45011;SDS011;63444;48.148;11.542;2024-03-02T13:03:17;18.27;;;14.23;;
45011;SDS011;63444;48.148;11.542;2024-03-02T13:05:48;14.83;;;12.93;;
45011;SDS011;63444;48.148;11.542;2024-03-02T13:08:14;18.07;;;12.93;;
45011;SDS011;63444;48.148;11.542;2024-03-02T13:10:41;15.07;;;12.97;;
45011;SDS011;63444;48.148;11.542;2024-03-02T13:13:06;18.30;;;13.77;;
45011;SDS011;63444;48.148;11.542;2024-03-02T13:15:32;17.87;;;14.20;;
45011;SDS011;63444;48.148;11.542;2024-03-02T13:17:59;15.13;;;12.93;;
45011;SDS011;63444;48.148;11.542;2024-03-02T13:20:29;13.97;;;12.07;;
45011;SDS011;63444;48.148;11.542;2024-03-02T13:22:59;13.67;;;11.87;;
45011;SDS011;63444;48.148;11.542;2024-03-02T13:25:25;15.93;;;12.73;;
45011;SDS011;63444;48.148;11.542;2024-03-02T13:27:51;15.53;;;12.60;;
45011;SDS011;63444;48.148;11.542;2024-03-02T13:30:16;14.87;;;12.43;;
45011;SDS011;63444;48.148;11.542;2024-03-02T13:32:42;17.03;;;13.10;;
45011;SDS011;63444;48.148;11.542;2024-03-02T13:35:08;15.87;;;13.50;;
45011;SDS011;63444;48.148;11.542;2024-03-02T13:37:36;18.27;;;14.30;;
45011;SDS011;63444;48.148;11.542;2024-03-02T13:40:02;18.13;;;14.80;;
45011;SDS011;63444;48.148;11.542;2024-03-02T13:42:29;20.20;;;15.10;;
45011;SDS011;63444;48.148;11.542;2024-03-02T13:44:55;17.40;;;15.33;;
45011;SDS011;63444;48.148;11.542;2024-03-02T13:47:21;16.83;;;14.77;;
45011;SDS011;63444;48.148;11.542;2024-03-02T13:49:47;19.60;;;16.20;;
45011;SDS011;63444;48.148;11.542;2024-03-02T13:52:14;18.47;;;15.43;;
45011;SDS011;63444;48.148;11.542;2024-03-02T13:54:41;22.03;;;16.87;;
45011;SDS011;63444;48.148;11.542;2024-03-02T13:57:11;19.23;;;15.97;;
45011;SDS011;63444;48.148;11.542;2024-03-02T13:59:37;18.53;;;14.73;;
45011;SDS011;63444;48.148;11.542;2024-03-02T14:02:07;19.03;;;16.13;;
45011;SDS011;63444;48.148;11.542;2024-03-02T14:04:33;19.77;;;15.83;;
45011;SDS011;63444;48.148;11.542;2024-03-02T14:07:00;20.63;;;16.10;;
45011;SDS011;63444;48.148;11.542;2024-03-02T14:09:26;21.40;;;16.20;;
45011;SDS011;63444;48.148;11.542;2024-03-02T14:11:52;18.33;;;15.50;;
45011;SDS011;63444;48.148;11.542;2024-03-02T14:14:19;18.43;;;15.20;;
45011;SDS011;63444;48.148;11.542;2024-03-02T14:16:45;18.23;;;14.17;;
45011;SDS011;63444;48.148;11.542;2024-03-02T14:19:11;15.67;;;13.17;;
45011;SDS011;63444;48.148;11.542;2024-03-02T14:21:37;14.60;;;12.03;;
45011;SDS011;63444;48.148;11.542;2024-03-02T14:24:03;15.87;;;13.53;;
45011;SDS011;63444;48.148;11.542;2024-03-02T14:26:29;16.20;;;13.33;;
45011;SDS011;63444;48.148;11.542;2024-03-02T14:28:55;17.47;;;13.13;;
45011;SDS011;63444;48.148;11.542;2024-03-02T14:31:20;16.50;;;13.50;;
45011;SDS011;63444;48.148;11.542;2024-03-02T14:33:46;15.40;;;12.50;;
45011;SDS011;63444;48.148;11.542;2024-03-02T14:36:12;15.17;;;12.67;;
45011;SDS011;63444;48.148;11.542;2024-03-02T14:38:38;13.23;;;11.40;;
45011;SDS011;63444;48.148;11.542;2024-03-02T14:41:04;14.80;;;11.77;;